createdAt,value
2019-03-29T00:00:32.500Z,22.63
2019-03-29T00:03:04.877Z,18.33
2019-03-29T00:05:37.171Z,17.70
2019-03-29T00:08:09.553Z,17.83
2019-03-29T00:10:41.851Z,23.30
2019-03-29T00:13:14.741Z,17.07
2019-03-29T00:15:47.327Z,21.97
2019-03-29T00:18:19.547Z,22.23
2019-03-29T00:20:51.963Z,19.10
2019-03-29T00:23:24.200Z,19.07
2019-03-29T00:25:56.618Z,19.40
2019-03-29T00:28:28.943Z,18.97
2019-03-29T00:31:01.189Z,17.07
2019-03-29T00:33:33.551Z,22.43
2019-03-29T00:36:05.833Z,21.20
2019-03-29T00:38:38.161Z,18.57
2019-03-29T00:41:11.598Z,19.03
2019-03-29T00:43:43.851Z,22.77
2019-03-29T00:46:16.125Z,22.87
2019-03-29T00:48:48.417Z,26.53
2019-03-29T00:51:20.677Z,15.27
2019-03-29T00:53:54.018Z,16.47
2019-03-29T00:56:26.308Z,16.60
2019-03-29T00:58:58.612Z,22.60
2019-03-29T01:01:30.899Z,19.53
2019-03-29T01:04:03.296Z,22.10
2019-03-29T01:06:35.497Z,20.70
2019-03-29T01:09:08.650Z,16.70
2019-03-29T01:11:41.289Z,19.20
2019-03-29T01:14:13.504Z,22.30
2019-03-29T01:16:45.762Z,22.50
2019-03-29T01:19:18.235Z,17.00
2019-03-29T01:21:50.481Z,17.77
2019-03-29T01:24:22.747Z,13.83
2019-03-29T01:26:55.093Z,17.23
2019-03-29T01:29:27.392Z,18.37
2019-03-29T01:31:59.687Z,21.90
2019-03-29T01:34:32.093Z,15.63
2019-03-29T01:37:04.370Z,15.93
2019-03-29T01:39:36.674Z,16.50
2019-03-29T01:42:08.908Z,21.07
2019-03-29T01:44:41.282Z,15.10
2019-03-29T01:47:13.628Z,18.90
2019-03-29T01:49:46.000Z,21.67
2019-03-29T01:52:18.280Z,17.77
2019-03-29T01:54:50.476Z,15.13
2019-03-29T01:57:22.764Z,19.40
2019-03-29T01:59:55.030Z,17.73
2019-03-29T02:02:27.395Z,26.53
2019-03-29T02:05:00.231Z,19.00
2019-03-29T02:07:33.394Z,19.20
2019-03-29T02:10:07.278Z,13.83
2019-03-29T02:12:39.577Z,20.33
2019-03-29T02:15:12.225Z,13.20
2019-03-29T02:17:44.441Z,15.80
2019-03-29T02:20:16.854Z,17.13
2019-03-29T02:22:49.216Z,15.90
2019-03-29T02:25:21.911Z,12.90
2019-03-29T02:27:54.189Z,18.77
2019-03-29T02:30:26.440Z,17.70
2019-03-29T02:32:58.992Z,14.60
2019-03-29T02:35:31.306Z,17.27
2019-03-29T02:38:03.619Z,24.43
2019-03-29T02:40:35.939Z,19.60
2019-03-29T02:43:08.294Z,18.50
2019-03-29T02:45:40.510Z,15.73
2019-03-29T02:48:12.774Z,14.90
2019-03-29T02:50:46.164Z,21.73
2019-03-29T02:53:18.527Z,17.73
2019-03-29T02:55:50.806Z,16.47
2019-03-29T02:58:23.147Z,13.47
2019-03-29T03:00:55.421Z,15.80
2019-03-29T03:03:27.787Z,16.03
2019-03-29T03:06:18.875Z,15.60
2019-03-29T03:08:51.274Z,15.07
2019-03-29T03:11:23.487Z,14.53
2019-03-29T03:13:55.817Z,18.53
2019-03-29T03:16:29.081Z,18.40
2019-03-29T03:19:01.538Z,17.80
2019-03-29T03:21:33.870Z,15.40
2019-03-29T03:24:06.222Z,13.03
2019-03-29T03:26:38.580Z,14.07
2019-03-29T03:29:10.942Z,20.23
2019-03-29T03:31:43.265Z,16.90
2019-03-29T03:34:15.600Z,17.67
2019-03-29T03:36:47.814Z,23.90
2019-03-29T03:39:31.433Z,14.97
2019-03-29T03:41:53.998Z,16.90
2019-03-29T03:44:26.313Z,18.00
2019-03-29T03:46:58.651Z,17.73
2019-03-29T03:49:30.898Z,19.50
2019-03-29T03:52:03.735Z,20.63
2019-03-29T03:54:35.994Z,19.30
2019-03-29T03:57:08.947Z,23.00
2019-03-29T03:59:42.115Z,17.03
2019-03-29T04:02:14.487Z,21.43
2019-03-29T04:04:46.758Z,25.40
2019-03-29T04:07:19.211Z,26.67
2019-03-29T04:09:51.779Z,22.70
2019-03-29T04:12:24.107Z,28.30
2019-03-29T04:14:56.411Z,32.87
2019-03-29T04:17:28.747Z,29.43
2019-03-29T04:20:04.440Z,27.33
2019-03-29T04:22:36.723Z,35.77
2019-03-29T04:25:09.292Z,36.17
2019-03-29T04:27:41.630Z,26.30
2019-03-29T04:30:14.402Z,29.73
2019-03-29T04:32:46.780Z,28.10
2019-03-29T04:35:19.201Z,26.67
2019-03-29T04:37:51.458Z,24.77
2019-03-29T04:40:24.856Z,29.90
2019-03-29T04:42:57.205Z,29.93
2019-03-29T04:45:29.637Z,25.03
2019-03-29T04:48:01.885Z,30.57
2019-03-29T04:50:34.195Z,30.17
2019-03-29T04:53:06.476Z,28.67
2019-03-29T04:55:38.758Z,29.47
2019-03-29T04:58:11.231Z,32.50
2019-03-29T05:00:43.580Z,37.30
2019-03-29T05:03:15.921Z,28.73
2019-03-29T05:05:48.350Z,32.97
2019-03-29T05:08:20.719Z,29.30
2019-03-29T05:10:53.065Z,28.40
2019-03-29T05:13:25.336Z,36.43
2019-03-29T05:15:57.685Z,34.53
2019-03-29T05:18:30.149Z,38.20
2019-03-29T05:21:02.583Z,33.73
2019-03-29T05:23:35.017Z,33.63
2019-03-29T05:26:07.555Z,34.87
2019-03-29T05:28:39.866Z,27.90
2019-03-29T05:31:12.236Z,29.37
2019-03-29T05:33:44.699Z,31.83
2019-03-29T05:36:16.945Z,27.87
2019-03-29T05:38:49.282Z,27.43
2019-03-29T05:41:21.565Z,30.13
2019-03-29T05:43:53.817Z,29.87
2019-03-29T05:46:26.177Z,24.93
2019-03-29T05:48:58.500Z,26.43
2019-03-29T05:51:30.927Z,27.80
2019-03-29T05:54:03.275Z,27.53
2019-03-29T05:56:35.581Z,23.53
2019-03-29T05:59:07.957Z,22.57
2019-03-29T06:01:40.307Z,20.87
2019-03-29T06:04:12.613Z,23.77
2019-03-29T06:06:45.049Z,22.07
2019-03-29T06:09:17.237Z,19.00
2019-03-29T06:11:49.532Z,29.67
2019-03-29T06:14:21.989Z,27.07
2019-03-29T06:16:54.373Z,23.67
2019-03-29T06:19:26.761Z,18.50
2019-03-29T06:22:00.144Z,21.40
2019-03-29T06:24:32.431Z,17.67
2019-03-29T06:27:04.869Z,19.00
2019-03-29T06:29:37.363Z,20.77
2019-03-29T06:32:09.768Z,38.77
2019-03-29T06:34:43.976Z,23.33
2019-03-29T06:37:21.120Z,22.60
2019-03-29T06:39:55.185Z,31.33
2019-03-29T06:42:27.511Z,26.40
2019-03-29T06:44:59.971Z,25.67
2019-03-29T06:47:49.794Z,25.40
2019-03-29T06:50:22.185Z,27.20
2019-03-29T06:52:54.450Z,33.43
2019-03-29T06:55:26.695Z,26.70
2019-03-29T06:58:00.057Z,26.50
2019-03-29T07:00:32.500Z,27.70
2019-03-29T07:03:04.779Z,27.70
2019-03-29T07:05:37.175Z,34.53
2019-03-29T07:08:09.721Z,30.00
2019-03-29T07:10:41.997Z,28.60
2019-03-29T07:13:14.399Z,32.80
2019-03-29T07:15:46.695Z,30.30
2019-03-29T07:18:19.115Z,31.13
2019-03-29T07:20:51.407Z,25.03
2019-03-29T07:23:23.765Z,30.80
2019-03-29T07:25:56.525Z,28.93
2019-03-29T07:28:29.085Z,27.27
2019-03-29T07:31:01.372Z,28.53
2019-03-29T07:33:34.191Z,29.00
2019-03-29T07:36:06.576Z,28.73
2019-03-29T07:38:39.007Z,30.50
2019-03-29T07:41:11.331Z,27.03
2019-03-29T07:43:43.774Z,33.83
2019-03-29T07:46:17.251Z,28.10
2019-03-29T07:48:54.731Z,27.03
2019-03-29T07:51:27.178Z,34.03
2019-03-29T07:53:59.587Z,30.77
2019-03-29T07:56:32.019Z,26.90
2019-03-29T07:59:04.337Z,29.83
2019-03-29T08:01:36.774Z,23.47
2019-03-29T08:04:09.463Z,27.13
2019-03-29T08:06:41.801Z,27.30
2019-03-29T08:09:22.345Z,25.00
2019-03-29T08:11:48.316Z,28.57
2019-03-29T08:14:31.854Z,28.90
2019-03-29T08:17:04.281Z,25.03
2019-03-29T08:19:37.370Z,23.10
2019-03-29T08:22:09.964Z,23.10
2019-03-29T08:24:42.657Z,24.60
2019-03-29T08:27:15.008Z,22.80
2019-03-29T08:29:47.489Z,22.40
2019-03-29T08:32:25.730Z,22.00
2019-03-29T08:34:58.154Z,21.70
2019-03-29T08:37:30.444Z,29.57
2019-03-29T08:40:02.727Z,22.53
2019-03-29T08:42:35.179Z,22.90
2019-03-29T08:45:09.447Z,27.73
2019-03-29T08:47:41.856Z,24.43
2019-03-29T08:50:14.317Z,20.57
2019-03-29T08:52:46.640Z,18.97
2019-03-29T08:55:18.870Z,26.33
2019-03-29T08:57:51.258Z,22.73
2019-03-29T09:00:33.873Z,27.17
2019-03-29T09:03:06.559Z,28.07
2019-03-29T09:05:39.356Z,25.37
2019-03-29T09:08:13.244Z,23.90
2019-03-29T09:10:45.650Z,22.30
2019-03-29T09:13:17.958Z,22.77
2019-03-29T09:15:50.287Z,23.97
2019-03-29T09:18:25.793Z,22.43
2019-03-29T09:20:56.594Z,29.43
2019-03-29T09:23:30.270Z,24.20
2019-03-29T09:26:02.936Z,24.60
2019-03-29T09:28:35.326Z,25.63
2019-03-29T09:31:07.988Z,26.30
2019-03-29T09:33:40.240Z,23.00
2019-03-29T09:36:12.595Z,23.33
2019-03-29T09:38:45.037Z,26.50
2019-03-29T09:41:18.771Z,27.50
2019-03-29T09:43:54.037Z,29.50
2019-03-29T09:46:25.146Z,22.63
2019-03-29T09:48:57.384Z,28.40
2019-03-29T09:51:29.658Z,22.50
2019-03-29T09:54:01.909Z,23.77
2019-03-29T09:56:39.229Z,22.67
2019-03-29T09:59:08.224Z,26.23
2019-03-29T10:01:40.611Z,28.00
2019-03-29T10:04:12.866Z,24.73
2019-03-29T10:06:45.363Z,25.60
2019-03-29T10:09:17.591Z,25.83
2019-03-29T10:11:50.026Z,29.00
2019-03-29T10:14:23.449Z,23.50
2019-03-29T10:16:55.773Z,27.50
2019-03-29T10:19:29.636Z,25.30
2019-03-29T10:22:03.051Z,25.10
2019-03-29T10:24:36.541Z,26.60
2019-03-29T10:27:08.853Z,28.57
2019-03-29T10:29:41.221Z,32.40
2019-03-29T10:32:15.220Z,29.43
2019-03-29T10:34:47.452Z,25.90
2019-03-29T10:37:19.832Z,26.63
2019-03-29T10:39:52.193Z,28.20
2019-03-29T10:42:24.464Z,38.20
2019-03-29T10:44:57.860Z,28.93
2019-03-29T10:47:43.263Z,32.77
2019-03-29T10:50:07.189Z,30.27
2019-03-29T10:52:39.685Z,30.83
2019-03-29T10:55:12.030Z,33.37
2019-03-29T10:57:44.302Z,30.67
2019-03-29T11:00:24.815Z,33.90
2019-03-29T11:02:57.175Z,33.20
2019-03-29T11:05:30.829Z,33.23
2019-03-29T11:08:03.327Z,35.00
2019-03-29T11:10:37.049Z,34.30
2019-03-29T11:13:13.017Z,32.87
2019-03-29T11:15:43.423Z,30.43
2019-03-29T11:18:15.781Z,32.63
2019-03-29T11:20:50.195Z,34.47
2019-03-29T11:23:22.498Z,33.60
2019-03-29T11:25:54.883Z,35.93
2019-03-29T11:28:28.601Z,32.70
2019-03-29T11:31:00.897Z,36.73
2019-03-29T11:33:33.431Z,33.00
2019-03-29T11:36:05.779Z,31.60
2019-03-29T11:38:38.071Z,39.23
2019-03-29T11:41:10.351Z,34.03
2019-03-29T11:43:42.668Z,33.97
2019-03-29T11:46:15.024Z,31.53
2019-03-29T11:48:47.337Z,32.40
2019-03-29T11:51:20.169Z,34.40
2019-03-29T11:53:54.702Z,34.30
2019-03-29T11:56:27.041Z,33.00
2019-03-29T11:58:59.481Z,38.90
2019-03-29T12:01:31.839Z,33.43
2019-03-29T12:04:04.243Z,33.37
2019-03-29T12:06:36.535Z,34.20
2019-03-29T12:09:09.767Z,32.23
2019-03-29T12:11:42.117Z,36.00
2019-03-29T12:14:14.442Z,40.93
2019-03-29T12:16:46.802Z,35.13
2019-03-29T12:19:25.869Z,40.23
2019-03-29T12:21:59.830Z,37.17
2019-03-29T12:24:32.151Z,36.83
2019-03-29T12:27:04.640Z,37.30
2019-03-29T12:29:36.993Z,38.17
2019-03-29T12:32:09.243Z,36.20
2019-03-29T12:34:41.492Z,35.83
2019-03-29T12:37:13.748Z,43.43
2019-03-29T12:39:46.055Z,39.23
2019-03-29T12:42:19.917Z,34.80
2019-03-29T12:44:52.765Z,40.10
2019-03-29T12:47:25.188Z,36.80
2019-03-29T12:49:57.536Z,38.80
2019-03-29T12:52:29.818Z,36.17
2019-03-29T12:55:02.180Z,40.17
2019-03-29T12:57:34.722Z,40.83
2019-03-29T13:00:08.953Z,34.93
2019-03-29T13:02:41.237Z,38.83
2019-03-29T13:05:13.781Z,37.73
2019-03-29T13:07:46.072Z,37.70
2019-03-29T13:10:18.724Z,38.50
2019-03-29T13:12:51.026Z,38.00
2019-03-29T13:15:23.418Z,40.23
2019-03-29T13:17:55.748Z,36.67
2019-03-29T13:20:28.119Z,40.90
2019-03-29T13:23:00.428Z,35.63
2019-03-29T13:25:32.681Z,38.97
2019-03-29T13:28:04.924Z,47.27
2019-03-29T13:30:37.407Z,35.73
2019-03-29T13:33:09.657Z,38.03
2019-03-29T13:35:44.677Z,40.23
2019-03-29T13:38:20.466Z,38.10
2019-03-29T13:40:51.931Z,39.23
2019-03-29T13:43:24.243Z,42.33
2019-03-29T13:45:56.523Z,38.60
2019-03-29T13:48:28.806Z,38.53
2019-03-29T13:51:01.082Z,37.77
2019-03-29T13:53:33.504Z,39.10
2019-03-29T13:56:05.864Z,36.37
2019-03-29T13:58:38.144Z,37.30
2019-03-29T14:01:10.632Z,38.80
2019-03-29T14:03:43.186Z,40.43
2019-03-29T14:06:15.555Z,40.50
2019-03-29T14:08:47.866Z,39.93
2019-03-29T14:11:20.234Z,37.00
2019-03-29T14:13:52.479Z,38.90
2019-03-29T14:16:24.808Z,45.73
2019-03-29T14:18:57.020Z,37.93
2019-03-29T14:21:29.278Z,41.03
2019-03-29T14:24:01.540Z,37.47
2019-03-29T14:26:34.916Z,36.40
2019-03-29T14:29:07.141Z,40.10
2019-03-29T14:31:39.415Z,38.60
2019-03-29T14:34:11.672Z,39.00
2019-03-29T14:36:43.911Z,39.40
2019-03-29T14:39:16.115Z,42.10
2019-03-29T14:41:49.083Z,35.83
2019-03-29T14:44:21.339Z,37.43
2019-03-29T14:46:53.807Z,36.50
2019-03-29T14:49:26.058Z,35.43
2019-03-29T14:51:58.392Z,38.20
2019-03-29T14:54:30.659Z,38.03
2019-03-29T14:57:05.435Z,36.10
2019-03-29T14:59:36.862Z,33.80
2019-03-29T15:02:09.118Z,35.07
2019-03-29T15:04:42.342Z,38.03
2019-03-29T15:07:15.125Z,37.97
2019-03-29T15:09:47.884Z,35.80
2019-03-29T15:12:20.173Z,33.83
2019-03-29T15:15:05.222Z,37.67
2019-03-29T15:17:26.425Z,32.73
2019-03-29T15:19:58.828Z,34.73
2019-03-29T15:22:33.109Z,34.83
2019-03-29T15:25:05.519Z,36.27
2019-03-29T15:27:37.817Z,32.13
2019-03-29T15:30:14.706Z,33.37
2019-03-29T15:32:49.038Z,36.60
2019-03-29T15:35:21.441Z,33.73
2019-03-29T15:37:53.729Z,33.33
2019-03-29T15:40:25.992Z,36.60
2019-03-29T15:42:59.317Z,36.20
2019-03-29T15:45:31.565Z,36.13
2019-03-29T15:48:03.941Z,33.47
2019-03-29T15:50:36.112Z,33.53
2019-03-29T15:53:08.511Z,36.53
2019-03-29T15:55:40.818Z,35.17
2019-03-29T15:58:13.275Z,36.77
2019-03-29T16:00:46.644Z,34.20
2019-03-29T16:03:18.974Z,35.30
2019-03-29T16:05:51.254Z,35.50
2019-03-29T16:08:23.587Z,38.50
2019-03-29T16:10:55.911Z,33.70
2019-03-29T16:13:28.405Z,35.30
2019-03-29T16:16:00.776Z,36.07
2019-03-29T16:18:33.124Z,35.53
2019-03-29T16:21:05.536Z,34.47
2019-03-29T16:23:37.888Z,36.70
2019-03-29T16:26:10.203Z,40.00
2019-03-29T16:28:42.520Z,36.30
2019-03-29T16:31:14.754Z,37.47
2019-03-29T16:33:47.212Z,40.67
2019-03-29T16:36:19.517Z,35.83
2019-03-29T16:38:51.929Z,34.47
2019-03-29T16:41:24.210Z,41.77
2019-03-29T16:43:56.655Z,36.53
2019-03-29T16:46:29.083Z,38.80
2019-03-29T16:49:01.404Z,40.33
2019-03-29T16:51:34.622Z,34.67
2019-03-29T16:54:07.057Z,38.47
2019-03-29T16:56:39.427Z,42.20
2019-03-29T16:59:11.757Z,41.70
2019-03-29T17:01:44.216Z,40.90
2019-03-29T17:04:16.642Z,38.67
2019-03-29T17:06:48.946Z,37.70
2019-03-29T17:09:21.339Z,38.40
2019-03-29T17:11:53.584Z,37.63
2019-03-29T17:14:26.055Z,36.93
2019-03-29T17:16:58.321Z,35.50
2019-03-29T17:19:30.679Z,36.60
2019-03-29T17:22:02.988Z,43.83
2019-03-29T17:24:36.350Z,35.97
2019-03-29T17:27:08.682Z,37.20
2019-03-29T17:29:41.169Z,35.20
2019-03-29T17:32:16.683Z,37.40
2019-03-29T17:34:49.092Z,41.27
2019-03-29T17:37:21.538Z,36.40
2019-03-29T17:39:53.882Z,40.37
2019-03-29T17:42:26.269Z,38.83
2019-03-29T17:44:59.126Z,38.50
2019-03-29T17:47:31.837Z,39.03
2019-03-29T17:50:04.245Z,39.50
2019-03-29T17:52:38.260Z,38.37
2019-03-29T17:55:10.705Z,48.33
2019-03-29T17:57:43.275Z,45.10
2019-03-29T18:00:19.895Z,43.27
2019-03-29T18:02:52.295Z,45.83
2019-03-29T18:05:24.693Z,42.23
2019-03-29T18:07:56.952Z,43.37
2019-03-29T18:10:29.241Z,38.90
2019-03-29T18:13:01.491Z,44.53
2019-03-29T18:15:33.795Z,39.70
2019-03-29T18:18:06.228Z,43.73
2019-03-29T18:20:38.569Z,43.63
2019-03-29T18:23:10.849Z,45.10
2019-03-29T18:25:44.180Z,40.40
2019-03-29T18:28:16.423Z,51.63
2019-03-29T18:30:48.897Z,48.23
2019-03-29T18:33:23.252Z,52.40
2019-03-29T18:35:55.907Z,47.53
2019-03-29T18:38:29.166Z,42.70
2019-03-29T18:41:01.501Z,41.83
2019-03-29T18:43:33.827Z,50.00
2019-03-29T18:46:06.200Z,47.00
2019-03-29T18:48:38.527Z,44.97
2019-03-29T18:51:10.965Z,49.33
2019-03-29T18:53:43.346Z,45.63
2019-03-29T18:56:15.870Z,47.87
2019-03-29T18:58:48.184Z,46.50
2019-03-29T19:01:20.661Z,48.53
2019-03-29T19:03:52.921Z,59.17
2019-03-29T19:06:25.392Z,47.50
2019-03-29T19:08:57.732Z,48.33
2019-03-29T19:11:30.154Z,47.77
2019-03-29T19:14:02.419Z,45.53
2019-03-29T19:16:34.794Z,51.10
2019-03-29T19:19:10.153Z,50.73
2019-03-29T19:21:44.156Z,48.93
2019-03-29T19:24:16.455Z,53.80
2019-03-29T19:26:49.152Z,42.30
2019-03-29T19:29:21.577Z,45.00
2019-03-29T19:31:56.099Z,55.73
2019-03-29T19:34:28.183Z,47.73
2019-03-29T19:37:01.686Z,47.07
2019-03-29T19:39:34.613Z,42.93
2019-03-29T19:42:07.079Z,46.53
2019-03-29T19:44:39.452Z,54.13
2019-03-29T19:47:13.875Z,48.97
2019-03-29T19:49:46.202Z,49.37
2019-03-29T19:52:18.620Z,48.40
2019-03-29T19:54:51.100Z,44.73
2019-03-29T19:57:23.483Z,49.90
2019-03-29T19:59:55.794Z,46.73
2019-03-29T20:02:28.379Z,47.37
2019-03-29T20:05:00.686Z,54.20
2019-03-29T20:07:33.143Z,49.80
2019-03-29T20:10:06.191Z,46.77
2019-03-29T20:12:38.563Z,48.50
2019-03-29T20:15:11.116Z,48.60
2019-03-29T20:17:43.586Z,46.30
2019-03-29T20:20:23.080Z,46.87
2019-03-29T20:22:58.061Z,47.40
2019-03-29T20:25:30.380Z,45.27
2019-03-29T20:28:02.963Z,51.23
2019-03-29T20:30:35.449Z,80.87
2019-03-29T20:33:07.856Z,58.57
2019-03-29T20:35:41.328Z,51.60
2019-03-29T20:38:13.706Z,51.97
2019-03-29T20:40:46.084Z,51.73
2019-03-29T20:43:18.686Z,64.17
2019-03-29T20:45:51.264Z,53.00
2019-03-29T20:48:28.473Z,53.43
2019-03-29T20:51:00.912Z,59.53
2019-03-29T20:53:33.261Z,76.10
2019-03-29T20:56:06.856Z,55.43
2019-03-29T20:58:39.159Z,55.27
2019-03-29T21:01:11.483Z,60.53
2019-03-29T21:03:43.940Z,65.73
2019-03-29T21:06:16.426Z,55.40
2019-03-29T21:08:59.910Z,56.80
2019-03-29T21:11:32.436Z,60.87
2019-03-29T21:14:04.960Z,62.33
2019-03-29T21:16:37.226Z,67.63
2019-03-29T21:19:09.554Z,66.30
2019-03-29T21:21:41.918Z,65.60
2019-03-29T21:24:14.316Z,64.10
2019-03-29T21:26:47.684Z,67.83
2019-03-29T21:29:20.214Z,69.67
2019-03-29T21:31:52.666Z,62.43
2019-03-29T21:34:25.153Z,69.33
2019-03-29T21:36:57.659Z,76.80
2019-03-29T21:39:31.511Z,72.37
2019-03-29T21:42:04.112Z,73.20
2019-03-29T21:44:36.504Z,67.90
2019-03-29T21:47:10.126Z,68.13
2019-03-29T21:49:42.634Z,67.50
2019-03-29T21:52:15.088Z,78.47
2019-03-29T21:54:49.844Z,70.43
2019-03-29T21:57:22.354Z,75.27
2019-03-29T21:59:55.017Z,83.30
2019-03-29T22:02:27.708Z,85.93
2019-03-29T22:05:00.394Z,73.07
2019-03-29T22:07:32.986Z,81.40
2019-03-29T22:10:09.233Z,81.17
2019-03-29T22:12:43.800Z,78.43
2019-03-29T22:15:17.413Z,77.10
2019-03-29T22:17:49.734Z,84.50
2019-03-29T22:20:22.132Z,81.90
2019-03-29T22:22:54.777Z,77.73
2019-03-29T22:25:27.302Z,80.30
2019-03-29T22:27:59.852Z,79.07
2019-03-29T22:30:32.534Z,77.40
2019-03-29T22:33:04.857Z,80.20
2019-03-29T22:35:42.248Z,75.30
2019-03-29T22:38:16.200Z,80.53
2019-03-29T22:40:48.509Z,79.83
2019-03-29T22:43:20.918Z,84.17
2019-03-29T22:45:53.306Z,84.60
2019-03-29T22:48:25.735Z,78.43
2019-03-29T22:51:00.079Z,87.33
2019-03-29T22:53:32.076Z,86.03
2019-03-29T22:56:04.464Z,84.63
2019-03-29T22:58:36.916Z,85.10
2019-03-29T23:01:09.548Z,83.27
2019-03-29T23:03:44.100Z,97.27
2019-03-29T23:06:16.346Z,81.17
2019-03-29T23:08:48.628Z,83.77
2019-03-29T23:11:20.979Z,94.73
2019-03-29T23:13:53.224Z,88.17
2019-03-29T23:16:25.548Z,87.93
2019-03-29T23:19:06.423Z,87.53
2019-03-29T23:21:31.849Z,92.17
2019-03-29T23:24:04.094Z,88.43
2019-03-29T23:26:36.461Z,85.07
2019-03-29T23:29:08.769Z,81.90
2019-03-29T23:31:41.034Z,100.70
2019-03-29T23:34:14.579Z,86.63
2019-03-29T23:36:47.186Z,92.40
2019-03-29T23:39:19.713Z,85.23
2019-03-29T23:41:52.049Z,92.83
2019-03-29T23:44:24.323Z,85.40
2019-03-29T23:46:56.744Z,87.43
2019-03-29T23:49:29.042Z,85.00
2019-03-29T23:52:01.352Z,77.07
2019-03-29T23:54:33.677Z,96.37
2019-03-29T23:57:06.008Z,90.50
2019-03-29T23:59:38.280Z,89.70
